Time;durP1;ratioP1;P1;durP2;ratioP2;P2;SDS_P1;SDS_P2;PMS_P1;PMS_P2;Temp;Humidity;BMP_temperature;BMP_pressure;BME280_temperature;BME280_humidity;BME280_pressure;Samples;Min_cycle;Max_cycle;Signal;HPM_P1;HPM_P2
2024/03/01 00:00:54;;;;;;;3.17;0.50;;;;;;;;;;2090638;28;20037;-52
2024/03/01 00:01:55;;;;;;;1.45;0.40;;;;;;;;;;2085156;28;20025;-50
2024/03/01 00:02:56;;;;;;;1.20;0.35;;;;;;;;;;2084970;28;20030;-51
2024/03/01 00:03:58;;;;;;;1.88;0.50;;;;;;;;;;2090756;28;20468;-51
2024/03/01 00:04:59;;;;;;;2.83;0.40;;;;;;;;;;2091021;28;20032;-49
2024/03/01 00:06:00;;;;;;;1.17;0.35;;;;;;;;;;2086168;28;20009;-49
2024/03/01 00:07:02;;;;;;;2.50;0.30;;;;;;;;;;2082548;28;20033;-49
2024/03/01 00:08:03;;;;;;;2.20;0.20;;;;;;;;;;2090301;28;20028;-49
2024/03/01 00:09:04;;;;;;;3.60;0.40;;;;;;;;;;2087552;28;20424;-50
2024/03/01 00:10:07;;;;;;;1.15;0.20;;;;;;;;;;2090513;28;20417;-50
2024/03/01 00:11:09;;;;;;;1.00;0.25;;;;;;;;;;2088785;28;20017;-50
2024/03/01 00:12:10;;;;;;;2.67;0.60;;;;;;;;;;2093576;28;20042;-49
2024/03/01 00:13:11;;;;;;;3.25;0.70;;;;;;;;;;2089899;28;20104;-52
2024/03/01 00:14:12;;;;;;;2.15;0.43;;;;;;;;;;2087570;28;20044;-51
2024/03/01 00:15:14;;;;;;;2.53;0.50;;;;;;;;;;2090455;28;20434;-49
2024/03/01 00:16:15;;;;;;;1.83;0.55;;;;;;;;;;2088344;28;20025;-51
2024/03/01 00:17:16;;;;;;;2.75;0.32;;;;;;;;;;2088814;28;20525;-51
2024/03/01 00:18:17;;;;;;;2.90;0.60;;;;;;;;;;2090681;28;20013;-51
2024/03/01 00:19:19;;;;;;;2.88;0.43;;;;;;;;;;2090619;28;20404;-51
2024/03/01 00:20:22;;;;;;;6.35;0.82;;;;;;;;;;2090298;28;20036;-50
2024/03/01 00:21:23;;;;;;;1.60;0.50;;;;;;;;;;2082685;28;20021;-51
2024/03/01 00:22:24;;;;;;;2.97;0.50;;;;;;;;;;2088255;28;20383;-51
2024/03/01 00:23:26;;;;;;;2.30;0.32;;;;;;;;;;2090850;28;20071;-52
2024/03/01 00:24:28;;;;;;;0.88;0.40;;;;;;;;;;2090797;28;20024;-51
2024/03/01 00:25:29;;;;;;;1.48;0.30;;;;;;;;;;2090499;28;20016;-51
2024/03/01 00:26:31;;;;;;;1.60;0.40;;;;;;;;;;2088586;28;20009;-48
2024/03/01 00:27:32;;;;;;;2.65;0.50;;;;;;;;;;2088058;28;20182;-52
2024/03/01 00:28:33;;;;;;;1.52;0.43;;;;;;;;;;2090542;28;20009;-51
2024/03/01 00:29:34;;;;;;;4.22;0.40;;;;;;;;;;2090540;28;20069;-51
2024/03/01 00:30:36;;;;;;;3.28;0.70;;;;;;;;;;2090289;28;20092;-52
2024/03/01 00:31:37;;;;;;;4.30;0.40;;;;;;;;;;2090474;28;20426;-50
2024/03/01 00:32:39;;;;;;;1.15;0.35;;;;;;;;;;2090430;28;20206;-51
2024/03/01 00:33:40;;;;;;;2.70;0.50;;;;;;;;;;2090376;28;20087;-51
2024/03/01 00:34:41;;;;;;;3.13;0.28;;;;;;;;;;2090665;28;20029;-50
2024/03/01 00:35:43;;;;;;;3.13;0.30;;;;;;;;;;2090531;28;20451;-52
2024/03/01 00:36:45;;;;;;;3.13;0.52;;;;;;;;;;2088672;28;20015;-52
2024/03/01 00:37:46;;;;;;;2.78;0.32;;;;;;;;;;2090391;28;20029;-51
2024/03/01 00:38:47;;;;;;;1.48;0.40;;;;;;;;;;2093451;28;20012;-52
2024/03/01 00:39:50;;;;;;;1.73;0.40;;;;;;;;;;2095234;28;20490;-52
2024/03/01 00:40:52;;;;;;;2.72;0.63;;;;;;;;;;2090571;28;20562;-51
2024/03/01 00:41:53;;;;;;;2.05;0.50;;;;;;;;;;2087861;28;20068;-51
2024/03/01 00:42:54;;;;;;;1.40;0.45;;;;;;;;;;2089782;28;20372;-51
2024/03/01 00:43:58;;;;;;;2.17;0.75;;;;;;;;;;2082197;28;20024;-51
2024/03/01 00:45:00;;;;;;;1.45;0.22;;;;;;;;;;2084864;28;20020;-52
2024/03/01 00:46:01;;;;;;;1.40;0.40;;;;;;;;;;2089648;28;20025;-52
2024/03/01 00:47:02;;;;;;;2.30;0.40;;;;;;;;;;2081594;28;20127;-48
2024/03/01 00:48:13;;;;;;;2.10;0.50;;;;;;;;;;2089606;28;20036;-51
2024/03/01 00:49:15;;;;;;;1.45;0.30;;;;;;;;;;2088924;28;20086;-52
2024/03/01 00:50:17;;;;;;;1.50;0.40;;;;;;;;;;2090575;28;20017;-52
2024/03/01 00:51:18;;;;;;;2.00;0.40;;;;;;;;;;2089740;28;20021;-52
2024/03/01 00:52:20;;;;;;;3.47;0.30;;;;;;;;;;2090009;28;20452;-52
2024/03/01 00:53:21;;;;;;;2.00;0.50;;;;;;;;;;2090207;28;20013;-52
2024/03/01 00:54:22;;;;;;;1.77;0.30;;;;;;;;;;2087566;28;20037;-52
2024/03/01 00:55:23;;;;;;;3.17;0.70;;;;;;;;;;2082221;28;20097;-53
2024/03/01 00:56:25;;;;;;;2.03;0.35;;;;;;;;;;2095144;28;20020;-51
2024/03/01 00:57:26;;;;;;;1.00;0.40;;;;;;;;;;2097437;28;20059;-51
2024/03/01 00:58:27;;;;;;;4.07;0.47;;;;;;;;;;2083615;28;20110;-51
2024/03/01 00:59:28;;;;;;;4.13;0.47;;;;;;;;;;2090222;28;20088;-51
2024/03/01 01:00:30;;;;;;;2.95;0.50;;;;;;;;;;2090338;28;20066;-51
2024/03/01 01:01:31;;;;;;;2.13;0.30;;;;;;;;;;2097367;28;20025;-51
2024/03/01 01:02:32;;;;;;;1.90;0.38;;;;;;;;;;2095114;28;20073;-51
2024/03/01 01:03:34;;;;;;;1.95;0.30;;;;;;;;;;2090460;28;20085;-52
2024/03/01 01:04:35;;;;;;;2.80;0.50;;;;;;;;;;2096062;28;20473;-52
2024/03/01 01:05:36;;;;;;;2.03;0.47;;;;;;;;;;2096967;28;20499;-50
2024/03/01 01:06:37;;;;;;;2.00;0.50;;;;;;;;;;2089450;28;20016;-50
2024/03/01 01:07:39;;;;;;;3.22;0.38;;;;;;;;;;2093992;28;20027;-51
2024/03/01 01:08:40;;;;;;;1.67;0.38;;;;;;;;;;2098535;28;20028;-49
2024/03/01 01:09:42;;;;;;;1.92;0.63;;;;;;;;;;2091086;28;20017;-51
2024/03/01 01:10:43;;;;;;;2.22;0.63;;;;;;;;;;2086504;28;20017;-51
2024/03/01 01:11:44;;;;;;;3.35;0.40;;;;;;;;;;2090165;28;20032;-49
2024/03/01 01:12:45;;;;;;;2.97;0.50;;;;;;;;;;2090051;28;20024;-51
2024/03/01 01:13:47;;;;;;;2.20;0.47;;;;;;;;;;2089958;28;20112;-51
2024/03/01 01:14:48;;;;;;;2.05;0.47;;;;;;;;;;2090025;28;20056;-51
2024/03/01 01:15:49;;;;;;;0.85;0.32;;;;;;;;;;2094778;28;20025;-51
2024/03/01 01:16:50;;;;;;;4.15;0.63;;;;;;;;;;2098071;28;20100;-51
2024/03/01 01:17:52;;;;;;;5.28;0.50;;;;;;;;;;2089995;28;20036;-51
2024/03/01 01:18:53;;;;;;;2.20;0.40;;;;;;;;;;2089835;28;20035;-51
2024/03/01 01:19:58;;;;;;;4.13;0.50;;;;;;;;;;2089268;28;20025;-49
2024/03/01 01:20:59;;;;;;;1.52;0.32;;;;;;;;;;2089240;28;20033;-51
2024/03/01 01:22:01;;;;;;;2.13;0.47;;;;;;;;;;2089889;28;20078;-52
2024/03/01 01:23:02;;;;;;;1.42;0.20;;;;;;;;;;2089983;28;20021;-52
2024/03/01 01:24:04;;;;;;;1.67;0.40;;;;;;;;;;2089314;28;20025;-52
2024/03/01 01:25:06;;;;;;;2.80;0.50;;;;;;;;;;2089395;28;20057;-52
2024/03/01 01:26:07;;;;;;;1.38;0.20;;;;;;;;;;2090289;28;20040;-50
2024/03/01 01:27:08;;;;;;;0.85;0.20;;;;;;;;;;2089814;28;20029;-50
2024/03/01 01:28:10;;;;;;;2.33;0.50;;;;;;;;;;2096487;28;20024;-52
2024/03/01 01:29:11;;;;;;;2.65;0.35;;;;;;;;;;2095050;28;20017;-51
2024/03/01 01:30:12;;;;;;;3.33;0.55;;;;;;;;;;2089992;28;20026;-53
2024/03/01 01:31:14;;;;;;;2.22;0.38;;;;;;;;;;2089215;28;20049;-51
2024/03/01 01:32:15;;;;;;;1.92;0.32;;;;;;;;;;2091983;28;20035;-49
2024/03/01 01:33:16;;;;;;;4.15;0.63;;;;;;;;;;2090088;28;20055;-49
2024/03/01 01:34:18;;;;;;;2.80;0.40;;;;;;;;;;2090247;28;20074;-51
2024/03/01 01:35:19;;;;;;;1.63;0.38;;;;;;;;;;2090151;28;20041;-52
2024/03/01 01:36:20;;;;;;;2.15;0.55;;;;;;;;;;2089363;28;20035;-50
2024/03/01 01:37:21;;;;;;;3.25;0.50;;;;;;;;;;2092297;28;20028;-51
2024/03/01 01:38:22;;;;;;;1.73;0.30;;;;;;;;;;2083761;28;20041;-51
2024/03/01 01:39:24;;;;;;;3.25;0.40;;;;;;;;;;2095148;28;20024;-49
2024/03/01 01:40:30;;;;;;;1.35;0.38;;;;;;;;;;2095900;28;20028;-49
2024/03/01 01:41:34;;;;;;;3.58;0.65;;;;;;;;;;2090447;28;20021;-48
2024/03/01 01:42:36;;;;;;;5.90;0.55;;;;;;;;;;2090550;28;20039;-48
2024/03/01 01:43:42;;;;;;;1.38;0.30;;;;;;;;;;2089947;28;20160;-47
2024/03/01 01:44:43;;;;;;;2.05;0.50;;;;;;;;;;2090891;28;20036;-50
2024/03/01 01:45:45;;;;;;;3.63;0.47;;;;;;;;;;2090505;28;20584;-49
2024/03/01 01:46:48;;;;;;;1.83;0.30;;;;;;;;;;2089936;28;20032;-49
2024/03/01 01:47:50;;;;;;;3.53;0.28;;;;;;;;;;2090019;28;20068;-49
2024/03/01 01:48:51;;;;;;;2.47;0.40;;;;;;;;;;2086597;28;20055;-50
2024/03/01 01:49:53;;;;;;;4.28;0.47;;;;;;;;;;2082737;28;20044;-48
2024/03/01 01:50:54;;;;;;;2.38;0.70;;;;;;;;;;2090590;28;20017;-49
2024/03/01 01:51:56;;;;;;;3.00;0.40;;;;;;;;;;2090329;28;20013;-49
2024/03/01 01:52:57;;;;;;;2.70;0.70;;;;;;;;;;2090012;28;20029;-48
2024/03/01 01:53:59;;;;;;;2.08;0.47;;;;;;;;;;2089362;28;20017;-48
2024/03/01 01:55:01;;;;;;;2.90;0.60;;;;;;;;;;2089651;28;20089;-48
2024/03/01 01:56:03;;;;;;;3.55;0.57;;;;;;;;;;2088673;28;20111;-48
2024/03/01 01:57:05;;;;;;;4.38;0.80;;;;;;;;;;2088398;28;20031;-48
2024/03/01 01:58:06;;;;;;;4.07;0.70;;;;;;;;;;2083497;28;20087;-48
2024/03/01 01:59:08;;;;;;;3.83;0.50;;;;;;;;;;2082783;28;20041;-48
2024/03/01 02:00:10;;;;;;;2.25;0.60;;;;;;;;;;2089909;28;20039;-47
2024/03/01 02:01:12;;;;;;;4.03;0.60;;;;;;;;;;2089561;28;20021;-48
2024/03/01 02:02:13;;;;;;;2.45;0.60;;;;;;;;;;2089848;28;20071;-47
2024/03/01 02:03:16;;;;;;;2.97;0.50;;;;;;;;;;2089701;28;20032;-47
2024/03/01 02:04:17;;;;;;;2.63;0.43;;;;;;;;;;2089679;28;20092;-47
2024/03/01 02:05:19;;;;;;;3.13;0.50;;;;;;;;;;2089988;28;20056;-48
2024/03/01 02:06:20;;;;;;;4.32;0.70;;;;;;;;;;2082583;28;20024;-47
2024/03/01 02:07:21;;;;;;;2.05;0.57;;;;;;;;;;2082948;28;20037;-47
2024/03/01 02:08:23;;;;;;;2.22;0.50;;;;;;;;;;2089602;28;20025;-47
2024/03/01 02:09:24;;;;;;;1.90;0.40;;;;;;;;;;2089525;28;20051;-48
2024/03/01 02:10:25;;;;;;;3.72;0.55;;;;;;;;;;2089517;28;20024;-47
2024/03/01 02:11:27;;;;;;;3.17;0.55;;;;;;;;;;2089731;28;20480;-48
2024/03/01 02:12:28;;;;;;;3.72;0.75;;;;;;;;;;2089684;28;20032;-48
2024/03/01 02:13:30;;;;;;;3.40;0.60;;;;;;;;;;2089634;28;20037;-47
2024/03/01 02:14:31;;;;;;;2.88;0.50;;;;;;;;;;2087817;28;20025;-47
2024/03/01 02:15:32;;;;;;;3.22;0.50;;;;;;;;;;2088054;28;20479;-48
2024/03/01 02:16:34;;;;;;;3.05;0.50;;;;;;;;;;2087340;28;20021;-47
2024/03/01 02:17:35;;;;;;;5.20;0.50;;;;;;;;;;2084303;28;20033;-48
2024/03/01 02:18:36;;;;;;;4.05;0.47;;;;;;;;;;2087315;28;20021;-47
2024/03/01 02:19:37;;;;;;;3.35;0.60;;;;;;;;;;2088858;28;20025;-51
2024/03/01 02:20:40;;;;;;;2.80;0.68;;;;;;;;;;2089807;28;20499;-48
2024/03/01 02:21:54;;;;;;;2.28;0.30;;;;;;;;;;2089105;28;20056;-50
2024/03/01 02:23:00;;;;;;;1.33;0.40;;;;;;;;;;2088527;28;20025;-49
2024/03/01 02:24:04;;;;;;;4.53;0.85;;;;;;;;;;2089124;28;20021;-51
2024/03/01 02:25:06;;;;;;;3.65;0.40;;;;;;;;;;2084772;28;20421;-51
2024/03/01 02:26:07;;;;;;;1.98;0.60;;;;;;;;;;2086166;28;20020;-50
2024/03/01 02:27:08;;;;;;;1.35;0.30;;;;;;;;;;2089322;28;20032;-48
2024/03/01 02:28:10;;;;;;;1.55;0.40;;;;;;;;;;2084344;28;20109;-48
2024/03/01 02:29:11;;;;;;;2.25;0.55;;;;;;;;;;2089339;28;20036;-48
2024/03/01 02:30:12;;;;;;;3.13;0.50;;;;;;;;;;2090388;28;20390;-49
2024/03/01 02:31:14;;;;;;;1.50;0.40;;;;;;;;;;2089871;28;20031;-48
2024/03/01 02:32:15;;;;;;;1.02;0.30;;;;;;;;;;2088636;28;20088;-48
2024/03/01 02:33:16;;;;;;;2.10;0.40;;;;;;;;;;2089083;28;20459;-49
2024/03/01 02:34:18;;;;;;;5.03;0.52;;;;;;;;;;2088661;28;20047;-49
2024/03/01 02:35:19;;;;;;;3.10;0.40;;;;;;;;;;2085391;28;20452;-48
2024/03/01 02:36:20;;;;;;;2.08;0.60;;;;;;;;;;2081384;28;20121;-48
2024/03/01 02:37:21;;;;;;;2.80;0.32;;;;;;;;;;2089388;28;20102;-48
2024/03/01 02:38:23;;;;;;;7.03;0.60;;;;;;;;;;2095681;28;20017;-47
2024/03/01 02:39:25;;;;;;;1.92;0.40;;;;;;;;;;2096748;28;20028;-47
2024/03/01 02:40:27;;;;;;;1.75;0.45;;;;;;;;;;2096634;28;20021;-48
2024/03/01 02:41:28;;;;;;;2.15;0.52;;;;;;;;;;2089039;28;20009;-49
2024/03/01 02:42:29;;;;;;;4.05;0.50;;;;;;;;;;2091970;28;20533;-48
2024/03/01 02:43:32;;;;;;;2.80;0.40;;;;;;;;;;2097235;28;20016;-49
2024/03/01 02:44:35;;;;;;;1.55;0.30;;;;;;;;;;2089918;28;20113;-49
2024/03/01 02:45:36;;;;;;;2.53;0.30;;;;;;;;;;2088064;28;20045;-49
2024/03/01 02:46:38;;;;;;;3.75;0.50;;;;;;;;;;2089955;28;20121;-49
2024/03/01 02:47:39;;;;;;;1.50;0.30;;;;;;;;;;2089404;28;20021;-49
2024/03/01 02:48:40;;;;;;;2.28;0.50;;;;;;;;;;2085751;28;20108;-48
2024/03/01 02:49:41;;;;;;;5.05;0.50;;;;;;;;;;2097522;28;20028;-47
2024/03/01 02:50:42;;;;;;;2.15;0.40;;;;;;;;;;2085647;28;20020;-49
2024/03/01 02:51:44;;;;;;;1.92;0.30;;;;;;;;;;2086720;28;20031;-49
2024/03/01 02:52:45;;;;;;;3.83;0.75;;;;;;;;;;2089185;28;20033;-49
2024/03/01 02:53:47;;;;;;;2.13;0.35;;;;;;;;;;2087761;28;20403;-49
2024/03/01 02:54:48;;;;;;;3.03;0.80;;;;;;;;;;2089259;28;20036;-48
2024/03/01 02:55:49;;;;;;;2.22;0.50;;;;;;;;;;2088758;28;20024;-48
2024/03/01 02:56:51;;;;;;;1.30;0.25;;;;;;;;;;2088585;28;20028;-48
2024/03/01 02:57:52;;;;;;;1.92;0.40;;;;;;;;;;2089201;28;20071;-48
2024/03/01 02:58:53;;;;;;;4.07;0.70;;;;;;;;;;2087698;28;20059;-47
2024/03/01 02:59:55;;;;;;;2.38;0.43;;;;;;;;;;2086961;28;20070;-48
2024/03/01 03:00:56;;;;;;;1.92;0.60;;;;;;;;;;2089272;28;20025;-48
2024/03/01 03:01:58;;;;;;;2.10;0.40;;;;;;;;;;2089198;28;20018;-47
2024/03/01 03:02:59;;;;;;;1.27;0.30;;;;;;;;;;2089314;28;20015;-48
2024/03/01 03:04:01;;;;;;;2.25;0.40;;;;;;;;;;2089302;28;20471;-47
2024/03/01 03:05:03;;;;;;;2.97;0.40;;;;;;;;;;2089271;28;20364;-48
2024/03/01 03:06:04;;;;;;;1.38;0.30;;;;;;;;;;2089183;28;20407;-49
2024/03/01 03:07:05;;;;;;;1.58;0.40;;;;;;;;;;2089094;28;20098;-49
2024/03/01 03:08:07;;;;;;;2.83;0.30;;;;;;;;;;2089065;28;20426;-48
2024/03/01 03:09:09;;;;;;;1.02;0.45;;;;;;;;;;2087224;28;20032;-49
2024/03/01 03:10:10;;;;;;;3.42;0.55;;;;;;;;;;2089438;28;20033;-49
2024/03/01 03:11:13;;;;;;;3.15;0.40;;;;;;;;;;2089337;28;20074;-48
2024/03/01 03:12:14;;;;;;;5.07;0.60;;;;;;;;;;2089012;28;20032;-47
2024/03/01 03:13:16;;;;;;;2.70;0.40;;;;;;;;;;2089499;28;20098;-49
2024/03/01 03:14:17;;;;;;;0.63;0.10;;;;;;;;;;2085439;28;20017;-49
2024/03/01 03:15:18;;;;;;;1.75;0.63;;;;;;;;;;2080962;28;20025;-47
2024/03/01 03:16:20;;;;;;;6.40;0.88;;;;;;;;;;2096324;28;20094;-48
2024/03/01 03:17:24;;;;;;;2.90;0.35;;;;;;;;;;2096391;28;20020;-48
2024/03/01 03:18:25;;;;;;;2.67;0.60;;;;;;;;;;2081094;28;20539;-48
2024/03/01 03:19:26;;;;;;;4.03;0.57;;;;;;;;;;2091457;28;20411;-49
2024/03/01 03:20:28;;;;;;;2.83;0.47;;;;;;;;;;2095279;28;20074;-49
2024/03/01 03:21:29;;;;;;;3.53;0.35;;;;;;;;;;2088700;28;20009;-49
2024/03/01 03:22:31;;;;;;;2.30;0.40;;;;;;;;;;2089047;28;20012;-49
2024/03/01 03:23:32;;;;;;;1.83;0.32;;;;;;;;;;2089329;28;20025;-50
2024/03/01 03:24:34;;;;;;;1.52;0.30;;;;;;;;;;2089261;28;20025;-48
2024/03/01 03:25:36;;;;;;;1.95;0.30;;;;;;;;;;2088131;28;20558;-48
2024/03/01 03:26:37;;;;;;;2.10;0.40;;;;;;;;;;2088055;28;20021;-49
2024/03/01 03:27:38;;;;;;;2.47;0.40;;;;;;;;;;2084504;28;20056;-49
2024/03/01 03:28:40;;;;;;;1.50;0.30;;;;;;;;;;2086086;28;20036;-49
2024/03/01 03:29:41;;;;;;;2.65;0.40;;;;;;;;;;2084626;28;20532;-50
2024/03/01 03:30:44;;;;;;;5.60;0.52;;;;;;;;;;2092224;28;20024;-48
2024/03/01 03:31:45;;;;;;;1.38;0.30;;;;;;;;;;2094638;28;20074;-49
2024/03/01 03:32:47;;;;;;;1.73;0.30;;;;;;;;;;2089021;28;20040;-50
2024/03/01 03:33:48;;;;;;;2.63;0.55;;;;;;;;;;2089175;28;20510;-49
2024/03/01 03:34:49;;;;;;;2.75;0.60;;;;;;;;;;2089151;28;20017;-51
2024/03/01 03:35:51;;;;;;;2.20;1.00;;;;;;;;;;2088304;28;20021;-50
2024/03/01 03:36:52;;;;;;;3.05;0.60;;;;;;;;;;2088434;28;20025;-49
2024/03/01 03:37:53;;;;;;;2.90;0.50;;;;;;;;;;2089004;28;20033;-48
2024/03/01 03:38:54;;;;;;;2.75;0.60;;;;;;;;;;2087872;28;20446;-47
2024/03/01 03:39:55;;;;;;;3.10;0.50;;;;;;;;;;2088412;28;20029;-49
2024/03/01 03:40:57;;;;;;;2.70;0.75;;;;;;;;;;2089191;28;20009;-48
2024/03/01 03:41:59;;;;;;;3.03;0.40;;;;;;;;;;2088993;28;20021;-49
2024/03/01 03:43:00;;;;;;;2.83;0.50;;;;;;;;;;2088878;28;20033;-52
2024/03/01 03:44:02;;;;;;;2.50;0.50;;;;;;;;;;2088926;28;20009;-50
2024/03/01 03:45:04;;;;;;;5.05;0.40;;;;;;;;;;2088247;28;20502;-50
2024/03/01 03:46:07;;;;;;;2.40;0.40;;;;;;;;;;2088358;28;20357;-50
2024/03/01 03:47:08;;;;;;;2.22;0.50;;;;;;;;;;2088884;28;20098;-50
2024/03/01 03:48:09;;;;;;;4.53;0.55;;;;;;;;;;2088858;28;20013;-50
2024/03/01 03:49:11;;;;;;;2.92;0.45;;;;;;;;;;2089067;28;20036;-49
2024/03/01 03:50:12;;;;;;;2.05;0.50;;;;;;;;;;2087612;28;20043;-52
2024/03/01 03:51:22;;;;;;;4.20;0.30;;;;;;;;;;2082726;28;20026;-51
2024/03/01 03:52:24;;;;;;;3.53;0.55;;;;;;;;;;2089148;28;20083;-52
2024/03/01 03:53:25;;;;;;;1.83;0.60;;;;;;;;;;2083665;28;20018;-50
2024/03/01 03:54:27;;;;;;;2.15;0.35;;;;;;;;;;2082972;28;20052;-52
2024/03/01 03:55:28;;;;;;;2.50;0.60;;;;;;;;;;2089151;28;20028;-52
2024/03/01 03:56:29;;;;;;;2.10;0.47;;;;;;;;;;2088870;28;20099;-52
2024/03/01 03:57:30;;;;;;;4.03;0.70;;;;;;;;;;2088288;28;20071;-51
2024/03/01 03:58:31;;;;;;;0.88;0.25;;;;;;;;;;2088705;28;20475;-52
2024/03/01 03:59:33;;;;;;;2.03;0.35;;;;;;;;;;2092598;28;20020;-52
2024/03/01 04:00:35;;;;;;;4.88;0.63;;;;;;;;;;2093524;28;20027;-51
2024/03/01 04:01:36;;;;;;;3.00;0.55;;;;;;;;;;2088982;28;20017;-51
2024/03/01 04:02:37;;;;;;;2.17;0.50;;;;;;;;;;2088843;28;20108;-51
2024/03/01 04:03:39;;;;;;;1.60;0.28;;;;;;;;;;2089244;28;20045;-51
2024/03/01 04:04:40;;;;;;;2.03;0.40;;;;;;;;;;2087852;28;20041;-52
2024/03/01 04:05:41;;;;;;;1.70;0.30;;;;;;;;;;2089102;28;20044;-52
2024/03/01 04:06:42;;;;;;;3.38;0.40;;;;;;;;;;2089103;28;20390;-51
2024/03/01 04:07:44;;;;;;;3.45;0.60;;;;;;;;;;2085670;28;20025;-51
2024/03/01 04:08:45;;;;;;;3.83;0.65;;;;;;;;;;2080895;28;20507;-51
2024/03/01 04:09:46;;;;;;;1.20;0.35;;;;;;;;;;2088641;28;20029;-51
2024/03/01 04:10:47;;;;;;;2.40;0.30;;;;;;;;;;2088963;28;20066;-51
2024/03/01 04:11:49;;;;;;;3.33;0.68;;;;;;;;;;2085865;28;20032;-51
2024/03/01 04:12:50;;;;;;;1.80;0.60;;;;;;;;;;2087285;28;20083;-52
2024/03/01 04:13:51;;;;;;;2.70;0.50;;;;;;;;;;2088754;28;20567;-51
2024/03/01 04:14:52;;;;;;;1.90;0.50;;;;;;;;;;2088926;28;20025;-52
2024/03/01 04:15:54;;;;;;;2.47;0.57;;;;;;;;;;2092923;28;20104;-51
2024/03/01 04:16:55;;;;;;;1.92;0.43;;;;;;;;;;2096509;28;20513;-51
2024/03/01 04:17:56;;;;;;;2.58;0.30;;;;;;;;;;2088780;28;20021;-52
2024/03/01 04:18:57;;;;;;;2.13;0.60;;;;;;;;;;2086625;28;20052;-50
2024/03/01 04:19:59;;;;;;;2.25;0.50;;;;;;;;;;2097363;28;20027;-51
2024/03/01 04:21:00;;;;;;;2.03;0.63;;;;;;;;;;2089506;28;20032;-52
2024/03/01 04:22:01;;;;;;;5.60;0.70;;;;;;;;;;2088780;28;20033;-51
2024/03/01 04:23:04;;;;;;;2.63;0.73;;;;;;;;;;2088940;28;20029;-51
2024/03/01 04:24:08;;;;;;;3.25;0.73;;;;;;;;;;2088933;28;20147;-51
2024/03/01 04:25:10;;;;;;;2.03;0.60;;;;;;;;;;2088769;28;20099;-51
2024/03/01 04:26:11;;;;;;;2.42;0.45;;;;;;;;;;2088775;28;20073;-51
2024/03/01 04:27:12;;;;;;;1.85;0.50;;;;;;;;;;2088633;28;20380;-51
2024/03/01 04:28:14;;;;;;;3.20;0.65;;;;;;;;;;2088967;28;20078;-49
2024/03/01 04:29:15;;;;;;;3.25;0.43;;;;;;;;;;2087563;28;20867;-52
2024/03/01 04:30:16;;;;;;;3.72;0.85;;;;;;;;;;2090283;28;20029;-51
2024/03/01 04:31:18;;;;;;;3.22;0.50;;;;;;;;;;2088320;28;20409;-49
2024/03/01 04:32:19;;;;;;;1.30;0.32;;;;;;;;;;2082530;28;20021;-50
2024/03/01 04:33:20;;;;;;;1.92;0.50;;;;;;;;;;2083890;28;20090;-50
2024/03/01 04:34:23;;;;;;;2.70;0.60;;;;;;;;;;2090349;28;20520;-51
2024/03/01 04:35:24;;;;;;;2.38;0.60;;;;;;;;;;2089002;28;20009;-51
2024/03/01 04:36:25;;;;;;;3.65;0.40;;;;;;;;;;2089963;28;20703;-51
2024/03/01 04:37:27;;;;;;;2.30;0.70;;;;;;;;;;2088060;28;20037;-50
2024/03/01 04:38:28;;;;;;;2.13;0.57;;;;;;;;;;2090270;28;20013;-51
2024/03/01 04:39:32;;;;;;;6.07;0.68;;;;;;;;;;2084978;28;20037;-50
2024/03/01 04:40:33;;;;;;;2.90;0.70;;;;;;;;;;2083073;28;20018;-51
2024/03/01 04:41:34;;;;;;;3.25;0.90;;;;;;;;;;2082893;28;20396;-51
2024/03/01 04:42:37;;;;;;;2.67;0.57;;;;;;;;;;2090334;28;20029;-50
2024/03/01 04:43:39;;;;;;;2.72;0.70;;;;;;;;;;2090064;28;20074;-53
2024/03/01 04:44:41;;;;;;;2.20;0.70;;;;;;;;;;2090398;28;20404;-51
2024/03/01 04:45:44;;;;;;;2.78;0.50;;;;;;;;;;2087042;28;20018;-52
2024/03/01 04:46:45;;;;;;;1.52;0.45;;;;;;;;;;2093311;28;20392;-51
2024/03/01 04:47:46;;;;;;;3.20;0.75;;;;;;;;;;2090370;28;20021;-50
2024/03/01 04:48:47;;;;;;;3.88;0.80;;;;;;;;;;2088708;28;20036;-50
2024/03/01 04:49:49;;;;;;;3.28;0.75;;;;;;;;;;2092034;28;20014;-52
2024/03/01 04:50:50;;;;;;;2.80;0.50;;;;;;;;;;2098746;28;20463;-51
2024/03/01 04:51:52;;;;;;;4.20;0.98;;;;;;;;;;2091045;28;20083;-47
2024/03/01 04:52:53;;;;;;;3.40;0.73;;;;;;;;;;2091070;28;20039;-48
2024/03/01 04:53:55;;;;;;;4.90;0.90;;;;;;;;;;2088405;28;20032;-48
2024/03/01 04:54:57;;;;;;;1.70;0.40;;;;;;;;;;2087356;28;20033;-48
2024/03/01 04:55:58;;;;;;;2.60;0.60;;;;;;;;;;2082320;28;20029;-48
2024/03/01 04:57:00;;;;;;;2.97;0.40;;;;;;;;;;2090224;28;20040;-49
2024/03/01 04:58:01;;;;;;;2.90;0.68;;;;;;;;;;2089887;28;20036;-49
2024/03/01 04:59:03;;;;;;;3.40;0.60;;;;;;;;;;2090255;28;20056;-48
2024/03/01 05:00:25;;;;;;;3.53;0.55;;;;;;;;;;2089064;28;20013;-48
2024/03/01 05:01:26;;;;;;;1.90;0.30;;;;;;;;;;2088421;28;20480;-49
2024/03/01 05:02:28;;;;;;;3.00;0.98;;;;;;;;;;2097844;28;20097;-48
2024/03/01 05:03:30;;;;;;;2.80;0.60;;;;;;;;;;2097280;28;20096;-48
2024/03/01 05:04:31;;;;;;;3.55;0.50;;;;;;;;;;2088840;28;20030;-48
2024/03/01 05:05:33;;;;;;;4.63;0.60;;;;;;;;;;2087913;28;20094;-47
2024/03/01 05:06:36;;;;;;;6.32;0.95;;;;;;;;;;2088813;28;20013;-48
2024/03/01 05:07:38;;;;;;;4.65;0.88;;;;;;;;;;2090214;28;20024;-48
2024/03/01 05:08:40;;;;;;;3.65;0.55;;;;;;;;;;2090259;28;20128;-48
2024/03/01 05:09:42;;;;;;;3.35;0.75;;;;;;;;;;2088716;28;20020;-48
2024/03/01 05:10:45;;;;;;;3.72;0.70;;;;;;;;;;2090147;28;20392;-48
2024/03/01 05:11:46;;;;;;;4.40;0.52;;;;;;;;;;2090243;28;20196;-49
2024/03/01 05:12:47;;;;;;;3.08;0.45;;;;;;;;;;2087028;28;20484;-47
2024/03/01 05:13:48;;;;;;;3.10;0.68;;;;;;;;;;2084472;28;20364;-49
2024/03/01 05:14:49;;;;;;;4.32;0.70;;;;;;;;;;2081995;28;20018;-48
2024/03/01 05:15:51;;;;;;;4.65;0.60;;;;;;;;;;2088691;28;20715;-50
2024/03/01 05:16:52;;;;;;;3.08;0.70;;;;;;;;;;2085677;28;20067;-47
2024/03/01 05:17:53;;;;;;;2.50;0.47;;;;;;;;;;2086856;28;20032;-48
2024/03/01 05:18:54;;;;;;;2.70;0.60;;;;;;;;;;2086975;28;20440;-48
2024/03/01 05:19:56;;;;;;;1.98;0.50;;;;;;;;;;2097728;28;20036;-48
2024/03/01 05:20:57;;;;;;;3.13;0.68;;;;;;;;;;2097611;28;20566;-48
2024/03/01 05:21:58;;;;;;;4.57;0.70;;;;;;;;;;2085727;28;20037;-48
2024/03/01 05:22:59;;;;;;;4.90;0.80;;;;;;;;;;2088831;28;20088;-49
2024/03/01 05:24:01;;;;;;;5.35;0.55;;;;;;;;;;2097738;28;20514;-48
2024/03/01 05:25:02;;;;;;;4.38;0.65;;;;;;;;;;2095763;28;20112;-46
2024/03/01 05:26:03;;;;;;;4.43;0.80;;;;;;;;;;2087844;28;20152;-48
2024/03/01 05:27:11;;;;;;;3.45;0.63;;;;;;;;;;2084626;28;20140;-50
2024/03/01 05:28:12;;;;;;;2.85;0.70;;;;;;;;;;2088995;28;20033;-48
2024/03/01 05:29:14;;;;;;;3.75;0.85;;;;;;;;;;2089175;28;20040;-48
2024/03/01 05:30:18;;;;;;;3.65;0.75;;;;;;;;;;2089411;28;20102;-48
2024/03/01 05:31:19;;;;;;;2.97;0.50;;;;;;;;;;2088732;28;20446;-49
2024/03/01 05:32:20;;;;;;;3.00;0.77;;;;;;;;;;2089393;28;20070;-49
2024/03/01 05:33:22;;;;;;;4.55;1.30;;;;;;;;;;2082289;28;20469;-48
2024/03/01 05:34:23;;;;;;;4.68;0.70;;;;;;;;;;2089806;28;20082;-47
2024/03/01 05:35:24;;;;;;;3.42;0.50;;;;;;;;;;2089480;28;20053;-48
2024/03/01 05:36:25;;;;;;;2.65;1.00;;;;;;;;;;2087250;28;20030;-47
2024/03/01 05:37:27;;;;;;;4.43;0.70;;;;;;;;;;2088596;28;20028;-48
2024/03/01 05:38:28;;;;;;;3.28;0.68;;;;;;;;;;2089378;28;20574;-48
2024/03/01 05:39:30;;;;;;;4.03;1.00;;;;;;;;;;2089221;28;20029;-48
2024/03/01 05:40:31;;;;;;;3.25;0.70;;;;;;;;;;2089987;28;20013;-47
2024/03/01 05:41:32;;;;;;;3.47;0.70;;;;;;;;;;2089266;28;20542;-49
2024/03/01 05:42:33;;;;;;;3.53;0.70;;;;;;;;;;2088917;28;20021;-48
2024/03/01 05:43:34;;;;;;;2.38;0.60;;;;;;;;;;2085875;28;20456;-48
2024/03/01 05:44:36;;;;;;;2.80;1.05;;;;;;;;;;2089060;28;20375;-48
2024/03/01 05:45:37;;;;;;;3.42;0.80;;;;;;;;;;2089766;28;20103;-48
2024/03/01 05:46:39;;;;;;;3.40;0.93;;;;;;;;;;2089953;28;20375;-48
2024/03/01 05:47:42;;;;;;;3.88;0.52;;;;;;;;;;2089620;28;20395;-48
2024/03/01 05:48:44;;;;;;;4.90;0.82;;;;;;;;;;2089607;28;20017;-48
2024/03/01 05:49:46;;;;;;;4.05;0.63;;;;;;;;;;2088370;28;20505;-48
2024/03/01 05:50:47;;;;;;;2.80;0.98;;;;;;;;;;2094541;28;20025;-48
2024/03/01 05:51:48;;;;;;;3.88;1.05;;;;;;;;;;2097254;28;20038;-47
2024/03/01 05:52:49;;;;;;;2.45;0.40;;;;;;;;;;2081953;28;20388;-47
2024/03/01 05:53:51;;;;;;;4.68;0.75;;;;;;;;;;2089164;28;20031;-48
2024/03/01 05:54:52;;;;;;;4.30;0.77;;;;;;;;;;2089183;28;20018;-48
2024/03/01 05:55:53;;;;;;;2.97;0.63;;;;;;;;;;2089786;28;20024;-49
2024/03/01 05:56:54;;;;;;;5.18;0.82;;;;;;;;;;2085116;28;20013;-47
2024/03/01 05:57:56;;;;;;;2.88;0.50;;;;;;;;;;2089044;28;20480;-51
2024/03/01 05:58:57;;;;;;;3.90;0.82;;;;;;;;;;2084144;28;20065;-50
2024/03/01 05:59:59;;;;;;;5.50;0.95;;;;;;;;;;2082059;28;20059;-51
2024/03/01 06:01:01;;;;;;;3.50;0.80;;;;;;;;;;2089328;28;20013;-52
2024/03/01 06:02:02;;;;;;;5.57;1.10;;;;;;;;;;2089145;28;20036;-51
2024/03/01 06:03:04;;;;;;;2.15;0.50;;;;;;;;;;2089869;28;20435;-53
2024/03/01 06:04:10;;;;;;;5.22;0.70;;;;;;;;;;2089182;28;20075;-49
2024/03/01 06:05:11;;;;;;;2.55;0.57;;;;;;;;;;2089066;28;20060;-50
2024/03/01 06:06:15;;;;;;;4.70;1.10;;;;;;;;;;2089983;28;20025;-52
2024/03/01 06:07:16;;;;;;;3.17;0.52;;;;;;;;;;2089732;28;20025;-50
2024/03/01 06:08:18;;;;;;;6.10;1.08;;;;;;;;;;2089709;28;20017;-50
2024/03/01 06:09:19;;;;;;;1.77;0.43;;;;;;;;;;2089742;28;20017;-50
2024/03/01 06:10:21;;;;;;;7.10;0.98;;;;;;;;;;2089351;28;20020;-50